createdAt,value
2023-04-28T00:00:57.145Z,23.52
2023-04-28T00:01:57.140Z,23.56
2023-04-28T00:02:57.323Z,23.53
2023-04-28T00:03:57.507Z,23.52
2023-04-28T00:04:57.161Z,23.52
2023-04-28T00:05:57.142Z,23.50
2023-04-28T00:06:57.105Z,23.54
2023-04-28T00:07:57.092Z,23.56
2023-04-28T00:08:57.093Z,23.56
2023-04-28T00:09:57.117Z,23.52
2023-04-28T00:10:57.071Z,23.49
2023-04-28T00:11:57.061Z,23.52
2023-04-28T00:12:57.057Z,23.53
2023-04-28T00:13:57.059Z,23.52
2023-04-28T00:14:57.041Z,23.52
2023-04-28T00:15:57.119Z,23.53
2023-04-28T00:16:57.150Z,23.56
2023-04-28T00:17:57.126Z,23.50
2023-04-28T00:18:57.039Z,23.53
2023-04-28T00:19:57.023Z,23.53
2023-04-28T00:20:57.011Z,23.47
2023-04-28T00:21:56.991Z,23.53
2023-04-28T00:22:56.994Z,23.49
2023-04-28T00:23:56.976Z,23.52
2023-04-28T00:24:56.969Z,23.47
2023-04-28T00:25:56.965Z,23.52
2023-04-28T00:26:56.976Z,23.50
2023-04-28T00:27:56.968Z,23.54
2023-04-28T00:28:56.963Z,23.50
2023-04-28T00:29:56.956Z,23.53
2023-04-28T00:30:56.940Z,23.50
2023-04-28T00:31:57.024Z,23.53
2023-04-28T00:32:56.944Z,23.53
2023-04-28T00:33:56.920Z,23.53
2023-04-28T00:34:56.915Z,23.47
2023-04-28T00:35:56.907Z,23.52
2023-04-28T00:36:56.899Z,23.50
2023-04-28T00:37:56.895Z,23.50
2023-04-28T00:38:56.875Z,23.49
2023-04-28T00:39:56.861Z,23.50
2023-04-28T00:40:56.892Z,23.50
2023-04-28T00:41:56.867Z,23.52
2023-04-28T00:42:56.935Z,23.49
2023-04-28T00:43:56.828Z,23.49
2023-04-28T00:44:56.839Z,23.49
2023-04-28T00:45:56.926Z,23.50
2023-04-28T00:46:56.835Z,23.48
2023-04-28T00:47:56.849Z,23.52
2023-04-28T00:48:56.811Z,23.49
2023-04-28T00:49:56.804Z,23.49
2023-04-28T00:50:56.802Z,23.50
2023-04-28T00:51:56.791Z,23.50
2023-04-28T00:52:56.796Z,23.56
2023-04-28T00:53:56.816Z,23.52
2023-04-28T00:54:56.758Z,23.49
2023-04-28T00:55:56.766Z,23.53
2023-04-28T00:56:56.756Z,23.50
2023-04-28T00:57:56.741Z,23.52
2023-04-28T00:58:56.733Z,23.50
2023-04-28T00:59:56.743Z,23.53
2023-04-28T01:00:56.830Z,23.50
2023-04-28T01:01:56.729Z,23.49
2023-04-28T01:02:56.926Z,23.53
2023-04-28T01:03:56.883Z,23.47
2023-04-28T01:04:56.786Z,23.54
2023-04-28T01:05:56.828Z,23.52
2023-04-28T01:06:56.872Z,23.52
2023-04-28T01:07:56.893Z,23.52
2023-04-28T01:08:56.903Z,23.52
2023-04-28T01:09:56.913Z,23.52
2023-04-28T01:10:56.947Z,23.53
2023-04-28T01:11:56.916Z,23.52
2023-04-28T01:12:56.938Z,23.53
2023-04-28T01:13:56.949Z,23.53
2023-04-28T01:14:56.938Z,23.56
2023-04-28T01:15:56.971Z,23.52
2023-04-28T01:16:57.068Z,23.56
2023-04-28T01:17:57.013Z,23.52
2023-04-28T01:18:56.959Z,23.57
2023-04-28T01:19:56.950Z,23.50
2023-04-28T01:20:56.939Z,23.50
2023-04-28T01:21:56.948Z,23.52
2023-04-28T01:22:56.926Z,23.59
2023-04-28T01:23:56.957Z,23.52
2023-04-28T01:24:56.927Z,23.54
2023-04-28T01:25:56.936Z,23.53
2023-04-28T01:26:56.922Z,23.60
2023-04-28T01:27:56.927Z,23.56
2023-04-28T01:28:56.922Z,23.54
2023-04-28T01:29:56.908Z,23.54
2023-04-28T01:30:56.899Z,23.54
2023-04-28T01:31:57.035Z,23.56
2023-04-28T01:32:56.890Z,23.52
2023-04-28T01:33:56.872Z,23.57
2023-04-28T01:34:56.875Z,23.59
2023-04-28T01:35:56.870Z,23.59
2023-04-28T01:36:56.860Z,23.57
2023-04-28T01:37:56.864Z,23.57
2023-04-28T01:38:56.891Z,23.56
2023-04-28T01:39:56.878Z,23.59
2023-04-28T01:40:56.904Z,23.53
2023-04-28T01:41:56.895Z,23.53
2023-04-28T01:42:56.901Z,23.50
2023-04-28T01:43:56.892Z,23.53
2023-04-28T01:44:56.886Z,23.53
2023-04-28T01:45:57.000Z,23.57
2023-04-28T01:46:56.901Z,23.54
2023-04-28T01:47:56.939Z,23.57
2023-04-28T01:48:56.915Z,23.54
2023-04-28T01:49:56.911Z,23.58
2023-04-28T01:50:56.900Z,23.57
2023-04-28T01:51:56.900Z,23.54
2023-04-28T01:52:56.873Z,23.56
2023-04-28T01:53:56.902Z,23.57
2023-04-28T01:54:56.874Z,23.56
2023-04-28T01:55:56.874Z,23.59
2023-04-28T01:56:56.890Z,23.58
2023-04-28T01:57:56.863Z,23.61
2023-04-28T01:58:56.876Z,23.60
2023-04-28T01:59:56.857Z,23.57
2023-04-28T02:00:56.860Z,23.61
2023-04-28T02:01:56.986Z,23.58
2023-04-28T02:02:56.925Z,23.61
2023-04-28T02:03:57.147Z,23.63
2023-04-28T02:04:56.984Z,23.61
2023-04-28T02:05:56.840Z,23.60
2023-04-28T02:06:56.854Z,23.64
2023-04-28T02:07:56.844Z,23.63
2023-04-28T02:08:56.826Z,23.61
2023-04-28T02:09:56.839Z,23.67
2023-04-28T02:10:56.819Z,23.64
2023-04-28T02:11:56.837Z,23.65
2023-04-28T02:12:56.828Z,23.67
2023-04-28T02:13:56.829Z,23.70
2023-04-28T02:14:56.803Z,23.64
2023-04-28T02:15:56.866Z,23.60
2023-04-28T02:16:56.800Z,23.64
2023-04-28T02:17:56.838Z,23.67
2023-04-28T02:18:56.809Z,23.63
2023-04-28T02:19:56.835Z,23.68
2023-04-28T02:20:56.792Z,23.73
2023-04-28T02:21:56.804Z,23.70
2023-04-28T02:22:56.775Z,23.67
2023-04-28T02:23:56.772Z,23.65
2023-04-28T02:24:56.786Z,23.64
2023-04-28T02:25:56.767Z,23.67
2023-04-28T02:26:56.765Z,23.70
2023-04-28T02:27:56.771Z,23.71
2023-04-28T02:28:56.757Z,23.68
2023-04-28T02:29:56.772Z,23.75
2023-04-28T02:30:56.762Z,23.73
2023-04-28T02:31:56.869Z,23.74
2023-04-28T02:32:56.899Z,23.74
2023-04-28T02:33:56.796Z,23.73
2023-04-28T02:34:56.796Z,23.68
2023-04-28T02:35:56.790Z,23.70
2023-04-28T02:36:56.779Z,23.71
2023-04-28T02:37:56.785Z,23.73
2023-04-28T02:38:56.774Z,23.73
2023-04-28T02:39:56.785Z,23.71
2023-04-28T02:40:56.754Z,23.71
2023-04-28T02:41:56.839Z,23.70
2023-04-28T02:42:56.755Z,23.71
2023-04-28T02:43:56.772Z,23.73
2023-04-28T02:44:56.784Z,23.77
2023-04-28T02:45:56.753Z,23.73
2023-04-28T02:46:56.924Z,23.70
2023-04-28T02:47:56.772Z,23.71
2023-04-28T02:48:56.749Z,23.73
2023-04-28T02:49:56.742Z,23.75
2023-04-28T02:50:56.736Z,23.73
2023-04-28T02:51:56.746Z,23.74
2023-04-28T02:52:56.750Z,23.77
2023-04-28T02:53:56.746Z,23.75
2023-04-28T02:54:56.739Z,23.74
2023-04-28T02:55:56.754Z,23.70
2023-04-28T02:56:56.736Z,23.77
2023-04-28T02:57:56.726Z,23.73
2023-04-28T02:58:56.756Z,23.71
2023-04-28T02:59:56.730Z,23.75
2023-04-28T03:00:56.742Z,23.75
2023-04-28T03:01:56.712Z,23.74
2023-04-28T03:02:56.821Z,23.77
2023-04-28T03:03:56.911Z,23.75
2023-04-28T03:04:56.804Z,23.83
2023-04-28T03:05:56.713Z,23.73
2023-04-28T03:06:56.766Z,23.68
2023-04-28T03:07:56.690Z,23.73
2023-04-28T03:08:56.700Z,23.79
2023-04-28T03:09:56.700Z,23.71
2023-04-28T03:10:56.713Z,23.74
2023-04-28T03:11:56.670Z,23.74
2023-04-28T03:12:56.683Z,23.79
2023-04-28T03:13:56.674Z,23.77
2023-04-28T03:14:56.678Z,23.77
2023-04-28T03:15:56.696Z,23.75
2023-04-28T03:16:56.654Z,23.77
2023-04-28T03:17:56.702Z,23.75
2023-04-28T03:18:56.649Z,23.74
2023-04-28T03:19:56.653Z,23.78
2023-04-28T03:20:56.637Z,23.79
2023-04-28T03:21:56.641Z,23.81
2023-04-28T03:22:56.647Z,23.74
2023-04-28T03:23:56.628Z,23.83
2023-04-28T03:24:56.635Z,23.77
2023-04-28T03:25:56.646Z,23.73
2023-04-28T03:26:56.644Z,23.75
2023-04-28T03:27:56.635Z,23.77
2023-04-28T03:28:56.617Z,23.77
2023-04-28T03:29:56.603Z,23.73
2023-04-28T03:30:56.596Z,23.75
2023-04-28T03:31:56.721Z,23.75
2023-04-28T03:32:56.613Z,23.75
2023-04-28T03:33:56.595Z,23.71
2023-04-28T03:34:56.607Z,23.75
2023-04-28T03:35:56.618Z,23.75
2023-04-28T03:36:56.595Z,23.74
2023-04-28T03:37:56.565Z,23.71
2023-04-28T03:38:56.587Z,23.73
2023-04-28T03:39:56.576Z,23.68
2023-04-28T03:40:56.580Z,23.68
2023-04-28T03:41:56.565Z,23.68
2023-04-28T03:42:56.547Z,23.68
2023-04-28T03:43:56.550Z,23.68
2023-04-28T03:44:56.540Z,23.74
2023-04-28T03:45:56.614Z,23.71
2023-04-28T03:46:56.537Z,23.67
2023-04-28T03:47:56.620Z,23.70
2023-04-28T03:48:56.540Z,23.70
2023-04-28T03:49:56.521Z,23.68
2023-04-28T03:50:56.520Z,23.74
2023-04-28T03:51:56.529Z,23.64
2023-04-28T03:52:56.520Z,23.68
2023-04-28T03:53:56.514Z,23.75
2023-04-28T03:54:56.531Z,23.67
2023-04-28T03:55:56.523Z,23.68
2023-04-28T03:56:56.523Z,23.71
2023-04-28T03:57:56.502Z,23.67
2023-04-28T03:58:56.507Z,23.70
2023-04-28T03:59:56.494Z,23.70
2023-04-28T04:00:56.492Z,23.75
2023-04-28T04:01:56.497Z,23.70
2023-04-28T04:02:56.563Z,23.68
2023-04-28T04:03:56.765Z,23.74
2023-04-28T04:04:56.644Z,23.71
2023-04-28T04:05:56.482Z,23.67
2023-04-28T04:06:56.483Z,23.70
2023-04-28T04:07:56.467Z,23.71
2023-04-28T04:08:56.472Z,23.73
2023-04-28T04:09:56.469Z,23.71
2023-04-28T04:10:56.450Z,23.71
2023-04-28T04:11:56.467Z,23.71
2023-04-28T04:12:56.447Z,23.75
2023-04-28T04:13:56.453Z,23.70
2023-04-28T04:14:56.448Z,23.73
2023-04-28T04:15:56.470Z,23.70
2023-04-28T04:16:56.436Z,23.70
2023-04-28T04:17:56.479Z,23.67
2023-04-28T04:18:56.452Z,23.70
2023-04-28T04:19:56.488Z,23.70
2023-04-28T04:20:56.485Z,23.70
2023-04-28T04:21:56.508Z,23.68
2023-04-28T04:22:56.519Z,23.71
2023-04-28T04:23:56.528Z,23.71
2023-04-28T04:24:56.548Z,23.70
2023-04-28T04:25:56.529Z,23.74
2023-04-28T04:26:56.550Z,23.70
2023-04-28T04:27:56.539Z,23.70
2023-04-28T04:28:56.546Z,23.70
2023-04-28T04:29:56.521Z,23.71
2023-04-28T04:30:56.548Z,23.74
2023-04-28T04:31:56.561Z,23.73
2023-04-28T04:32:56.554Z,23.71
2023-04-28T04:33:56.533Z,23.74
2023-04-28T04:34:56.539Z,23.77
2023-04-28T04:35:56.525Z,23.74
2023-04-28T04:36:56.556Z,23.75
2023-04-28T04:37:56.511Z,23.71
2023-04-28T04:38:56.547Z,23.73
2023-04-28T04:39:56.521Z,23.74
2023-04-28T04:40:56.502Z,23.74
2023-04-28T04:41:56.494Z,23.77
2023-04-28T04:42:56.512Z,23.77
2023-04-28T04:43:56.489Z,23.80
2023-04-28T04:44:56.487Z,23.77
2023-04-28T04:45:56.488Z,23.80
2023-04-28T04:46:56.560Z,23.75
2023-04-28T04:47:56.541Z,23.81
2023-04-28T04:48:56.474Z,23.77
2023-04-28T04:49:56.493Z,23.83
2023-04-28T04:50:56.476Z,23.79
2023-04-28T04:51:56.470Z,23.77
2023-04-28T04:52:56.486Z,23.77
2023-04-28T04:53:56.464Z,23.80
2023-04-28T04:54:56.458Z,23.79
2023-04-28T04:55:56.471Z,23.77
2023-04-28T04:56:56.474Z,23.77
2023-04-28T04:57:56.462Z,23.73
2023-04-28T04:58:56.469Z,23.77
2023-04-28T04:59:56.456Z,23.77
2023-04-28T05:00:56.458Z,23.71
2023-04-28T05:01:56.492Z,23.74
2023-04-28T05:02:56.516Z,23.75
2023-04-28T05:03:56.624Z,23.75
2023-04-28T05:05:07.986Z,23.73
2023-04-28T05:05:57.478Z,23.79
2023-04-28T05:06:56.471Z,23.70
2023-04-28T05:07:56.479Z,23.79
2023-04-28T05:08:56.465Z,23.77
2023-04-28T05:09:56.448Z,23.80
2023-04-28T05:10:56.448Z,23.79
2023-04-28T05:11:56.425Z,23.73
2023-04-28T05:12:56.414Z,23.79
2023-04-28T05:13:56.432Z,23.74
2023-04-28T05:14:56.413Z,23.82
2023-04-28T05:15:56.409Z,23.81
2023-04-28T05:16:56.456Z,23.79
2023-04-28T05:17:56.384Z,23.76
2023-04-28T05:18:56.376Z,23.77
2023-04-28T05:19:56.369Z,23.83
2023-04-28T05:20:56.386Z,23.80
2023-04-28T05:21:56.364Z,23.80
2023-04-28T05:22:56.344Z,23.83
2023-04-28T05:23:56.352Z,23.80
2023-04-28T05:24:56.354Z,23.84
2023-04-28T05:25:56.426Z,23.81
2023-04-28T05:26:56.373Z,24.42
2023-04-28T05:27:56.460Z,24.41
2023-04-28T05:28:56.373Z,24.92
2023-04-28T05:29:56.362Z,25.18
2023-04-28T05:30:56.368Z,25.29
2023-04-28T05:31:56.391Z,25.87
2023-04-28T05:32:56.404Z,25.72
2023-04-28T05:33:56.362Z,26.16
2023-04-28T05:34:56.382Z,26.04
2023-04-28T05:35:56.403Z,25.99
2023-04-28T05:36:56.401Z,25.89
2023-04-28T05:37:56.420Z,26.32
2023-04-28T05:38:56.428Z,26.07
2023-04-28T05:39:56.428Z,26.80
2023-04-28T05:40:56.447Z,26.52
2023-04-28T05:41:56.471Z,26.20
2023-04-28T05:42:56.454Z,27.55
2023-04-28T05:43:56.453Z,27.11
2023-04-28T05:44:56.442Z,26.95
2023-04-28T05:45:56.516Z,26.64
2023-04-28T05:46:56.571Z,26.84
2023-04-28T05:47:56.491Z,26.73
2023-04-28T05:48:56.451Z,26.30
2023-04-28T05:49:56.423Z,26.59
2023-04-28T05:50:56.434Z,26.49
2023-04-28T05:51:56.460Z,26.54
2023-04-28T05:52:56.487Z,26.66
2023-04-28T05:53:56.530Z,26.77
2023-04-28T05:54:56.600Z,27.08
2023-04-28T05:55:56.650Z,27.08
2023-04-28T05:56:56.713Z,27.08
2023-04-28T05:57:56.769Z,27.00
2023-04-28T05:58:56.820Z,27.13
2023-04-28T05:59:56.865Z,27.02
2023-04-28T06:00:56.893Z,27.40
2023-04-28T06:01:56.954Z,27.22
2023-04-28T06:02:57.091Z,27.10
2023-04-28T06:03:57.265Z,27.09
2023-04-28T06:04:57.280Z,27.05
2023-04-28T06:05:57.262Z,27.01
2023-04-28T06:06:57.434Z,27.05
2023-04-28T06:07:57.192Z,27.11
2023-04-28T06:08:57.234Z,27.00
2023-04-28T06:09:57.278Z,27.05
2023-04-28T06:10:57.316Z,27.13
2023-04-28T06:11:57.350Z,27.22
2023-04-28T06:12:57.382Z,27.19
2023-04-28T06:13:57.391Z,27.23
2023-04-28T06:14:57.435Z,27.20
2023-04-28T06:15:57.564Z,27.10
2023-04-28T06:16:57.496Z,27.06
2023-04-28T06:17:57.983Z,27.06
2023-04-28T06:18:57.561Z,26.96
2023-04-28T06:19:57.599Z,27.02
2023-04-28T06:20:57.641Z,26.98
2023-04-28T06:21:57.672Z,26.99
2023-04-28T06:22:57.689Z,27.10
2023-04-28T06:23:57.719Z,27.03
2023-04-28T06:24:57.738Z,27.09
2023-04-28T06:25:57.759Z,27.06
2023-04-28T06:26:57.791Z,27.01
2023-04-28T06:27:57.820Z,26.95
2023-04-28T06:28:57.829Z,27.01
2023-04-28T06:29:57.862Z,26.94
2023-04-28T06:30:57.917Z,26.76
2023-04-28T06:31:57.977Z,27.24
2023-04-28T06:32:58.010Z,26.96
2023-04-28T06:33:57.912Z,26.82
2023-04-28T06:34:58.709Z,26.81
2023-04-28T06:35:57.959Z,26.74
2023-04-28T06:36:58.467Z,26.71
2023-04-28T06:37:58.010Z,26.65
2023-04-28T06:38:58.013Z,26.61
2023-04-28T06:39:58.015Z,26.54
2023-04-28T06:40:58.054Z,26.61
2023-04-28T06:41:58.052Z,26.54
2023-04-28T06:42:58.065Z,26.60
2023-04-28T06:43:58.073Z,26.60
2023-04-28T06:44:58.071Z,26.62
2023-04-28T06:45:58.284Z,27.18
2023-04-28T06:46:58.215Z,27.22
2023-04-28T06:47:58.464Z,27.12
2023-04-28T06:48:58.102Z,27.25
2023-04-28T06:49:58.142Z,27.22
2023-04-28T06:50:58.133Z,27.53
2023-04-28T06:51:58.133Z,27.42
2023-04-28T06:52:58.455Z,27.33
2023-04-28T06:53:58.129Z,27.33
2023-04-28T06:54:58.143Z,27.38
2023-04-28T06:55:58.128Z,27.44
2023-04-28T06:56:58.467Z,27.48
2023-04-28T06:57:58.484Z,27.44
2023-04-28T06:58:58.143Z,27.49
2023-04-28T06:59:58.155Z,27.44
2023-04-28T07:00:58.168Z,27.44
2023-04-28T07:01:58.200Z,27.45
2023-04-28T07:02:58.584Z,27.41
2023-04-28T07:03:58.250Z,27.49
2023-04-28T07:04:58.167Z,27.51
2023-04-28T07:05:58.166Z,27.46
2023-04-28T07:06:58.218Z,27.55
2023-04-28T07:07:58.468Z,27.31
2023-04-28T07:08:58.153Z,27.54
2023-04-28T07:09:58.163Z,27.53
2023-04-28T07:10:58.144Z,27.50
2023-04-28T07:11:58.143Z,27.58
2023-04-28T07:12:58.151Z,27.56
2023-04-28T07:13:58.133Z,27.63
2023-04-28T07:14:58.158Z,27.70
2023-04-28T07:15:58.185Z,27.75
2023-04-28T07:16:58.132Z,27.59
2023-04-28T07:17:58.535Z,27.77
2023-04-28T07:18:58.147Z,27.80
2023-04-28T07:19:58.101Z,27.76
2023-04-28T07:20:58.103Z,27.76
2023-04-28T07:21:58.115Z,27.84
2023-04-28T07:22:58.112Z,27.73
2023-04-28T07:23:58.100Z,27.67
2023-04-28T07:24:58.133Z,27.89
2023-04-28T07:25:58.094Z,27.86
2023-04-28T07:26:58.129Z,28.05
2023-04-28T07:27:58.147Z,28.34
2023-04-28T07:28:58.196Z,29.26
2023-04-28T07:29:58.291Z,29.66
2023-04-28T07:30:58.305Z,29.90
2023-04-28T07:31:58.298Z,30.09
2023-04-28T07:32:58.557Z,29.85
2023-04-28T07:33:58.279Z,30.44
2023-04-28T07:34:58.287Z,30.44
2023-04-28T07:35:58.263Z,30.18
2023-04-28T07:36:58.310Z,29.90
2023-04-28T07:37:58.372Z,29.78
2023-04-28T07:38:58.409Z,29.67
2023-04-28T07:39:58.465Z,29.55
2023-04-28T07:40:58.502Z,29.48
2023-04-28T07:41:59.004Z,29.37
2023-04-28T07:42:58.542Z,29.31
2023-04-28T07:43:58.533Z,29.33
2023-04-28T07:44:58.550Z,29.05
2023-04-28T07:45:58.567Z,29.00
2023-04-28T07:46:58.569Z,28.91
2023-04-28T07:47:58.589Z,28.85
2023-04-28T07:48:58.556Z,28.93
2023-04-28T07:49:58.567Z,28.91
2023-04-28T07:50:58.557Z,28.84
2023-04-28T07:51:58.995Z,28.85
2023-04-28T07:52:58.983Z,28.79
2023-04-28T07:53:58.565Z,28.69
2023-04-28T07:54:58.580Z,28.77
2023-04-28T07:55:58.583Z,28.76
2023-04-28T07:56:58.604Z,28.77
2023-04-28T07:57:58.630Z,28.72
2023-04-28T07:58:58.661Z,28.73
2023-04-28T07:59:58.689Z,28.68
2023-04-28T08:00:58.740Z,28.59
2023-04-28T08:01:59.093Z,28.65
2023-04-28T08:02:59.016Z,28.61
2023-04-28T08:03:59.229Z,28.46
2023-04-28T08:04:59.409Z,28.56
2023-04-28T08:05:59.093Z,28.79
2023-04-28T08:06:59.523Z,28.68
2023-04-28T08:07:59.506Z,28.67
2023-04-28T08:08:59.211Z,28.66
2023-04-28T08:09:59.286Z,28.57
2023-04-28T08:10:59.320Z,28.56
2023-04-28T08:11:59.384Z,28.55
2023-04-28T08:12:59.476Z,28.56
2023-04-28T08:13:59.491Z,28.67
2023-04-28T08:14:59.571Z,28.68
2023-04-28T08:15:59.627Z,28.61
2023-04-28T08:16:59.644Z,28.61
2023-04-28T08:18:00.159Z,28.71
2023-04-28T08:18:59.919Z,28.68
2023-04-28T08:19:59.811Z,28.71
2023-04-28T08:20:59.858Z,28.77
2023-04-28T08:21:59.912Z,28.86
2023-04-28T08:23:00.031Z,28.73
2023-04-28T08:23:59.961Z,28.40
2023-04-28T08:24:59.962Z,28.69
2023-04-28T08:25:59.958Z,28.92
2023-04-28T08:26:59.973Z,29.24
2023-04-28T08:28:00.015Z,29.69
2023-04-28T08:29:00.037Z,29.93
2023-04-28T08:30:00.066Z,29.75
2023-04-28T08:31:00.173Z,29.83
2023-04-28T08:32:00.178Z,30.25
2023-04-28T08:33:00.580Z,31.13
2023-04-28T08:34:00.206Z,30.74
2023-04-28T08:35:00.194Z,30.99
2023-04-28T08:36:00.213Z,31.29
2023-04-28T08:37:00.255Z,31.29
2023-04-28T08:38:00.536Z,31.58
2023-04-28T08:39:00.320Z,32.19
2023-04-28T08:40:00.347Z,31.66
2023-04-28T08:41:00.384Z,31.50
2023-04-28T08:42:00.409Z,31.30
2023-04-28T08:43:00.465Z,31.11
2023-04-28T08:44:00.464Z,31.19
2023-04-28T08:45:00.462Z,31.33
2023-04-28T08:46:00.482Z,31.30
2023-04-28T08:47:00.571Z,31.28
2023-04-28T08:48:00.665Z,31.09
2023-04-28T08:49:00.628Z,31.07
2023-04-28T08:50:00.642Z,30.81
2023-04-28T08:51:00.679Z,30.64
2023-04-28T08:52:00.681Z,30.55
2023-04-28T08:53:00.698Z,30.56
2023-04-28T08:55:00.704Z,30.42
2023-04-28T08:56:00.701Z,30.26
2023-04-28T08:57:00.680Z,30.15
2023-04-28T08:58:00.677Z,30.08
2023-04-28T08:59:00.683Z,30.04
2023-04-28T09:00:00.687Z,30.38
2023-04-28T09:01:00.666Z,30.15
2023-04-28T09:02:00.913Z,30.28
2023-04-28T09:03:00.785Z,30.20
2023-04-28T09:04:00.914Z,30.15
2023-04-28T09:05:00.838Z,30.11
2023-04-28T09:06:00.639Z,30.05
2023-04-28T09:07:00.610Z,30.06
2023-04-28T09:08:00.642Z,30.24
2023-04-28T09:09:00.609Z,30.08
2023-04-28T09:10:00.595Z,30.08
2023-04-28T09:11:00.598Z,29.97
2023-04-28T09:12:00.580Z,29.94
2023-04-28T09:13:01.063Z,29.87
2023-04-28T09:14:00.569Z,29.87
2023-04-28T09:15:00.586Z,29.85
2023-04-28T09:16:00.584Z,29.84
2023-04-28T09:17:00.563Z,29.71
2023-04-28T09:18:00.649Z,29.83
2023-04-28T09:19:00.535Z,29.72
2023-04-28T09:20:00.555Z,29.85
2023-04-28T09:21:01.965Z,29.81
2023-04-28T09:22:03.696Z,29.98
2023-04-28T09:23:01.524Z,30.08
2023-04-28T09:24:00.529Z,30.08
2023-04-28T09:25:00.509Z,29.94
2023-04-28T09:26:00.527Z,29.73
2023-04-28T09:27:00.489Z,29.58
2023-04-28T09:28:00.497Z,29.62
2023-04-28T09:29:00.544Z,29.59
2023-04-28T09:30:00.472Z,29.95
2023-04-28T09:31:00.464Z,31.28
2023-04-28T09:32:00.490Z,30.96
2023-04-28T09:33:00.562Z,30.90
2023-04-28T09:34:00.462Z,30.96
2023-04-28T09:35:00.443Z,30.98
2023-04-28T09:36:00.446Z,30.96
2023-04-28T09:37:00.485Z,30.77
2023-04-28T09:38:00.614Z,30.82
2023-04-28T09:39:01.022Z,30.94
2023-04-28T09:40:00.643Z,31.04
2023-04-28T09:41:00.711Z,31.17
2023-04-28T09:42:00.734Z,31.23
2023-04-28T09:43:06.261Z,31.26
2023-04-28T09:44:01.797Z,31.47
2023-04-28T09:45:00.789Z,31.49
2023-04-28T09:46:00.847Z,31.46
2023-04-28T09:47:00.757Z,31.80
2023-04-28T09:48:01.137Z,31.67
2023-04-28T09:49:00.765Z,31.78
2023-04-28T09:50:00.768Z,31.91
2023-04-28T09:51:00.738Z,32.00
2023-04-28T09:52:00.747Z,32.03
2023-04-28T09:53:00.737Z,31.97
2023-04-28T09:54:00.720Z,32.17
2023-04-28T09:55:00.708Z,32.18
2023-04-28T09:56:00.708Z,32.26
2023-04-28T09:57:00.716Z,32.26
2023-04-28T09:58:00.696Z,32.37
2023-04-28T09:59:01.055Z,32.33
2023-04-28T10:00:00.686Z,32.35
2023-04-28T10:01:00.832Z,32.48
2023-04-28T10:02:04.665Z,32.55
2023-04-28T10:03:01.792Z,32.63
2023-04-28T10:04:00.852Z,32.69
2023-04-28T10:05:00.851Z,32.77
2023-04-28T10:06:00.634Z,32.84
2023-04-28T10:07:00.623Z,32.91
2023-04-28T10:08:00.628Z,32.87
2023-04-28T10:09:00.941Z,32.87
2023-04-28T10:10:00.622Z,33.06
2023-04-28T10:11:00.597Z,33.03
2023-04-28T10:12:00.589Z,33.06
2023-04-28T10:13:00.589Z,33.06
2023-04-28T10:14:00.653Z,33.14
2023-04-28T10:15:00.577Z,33.16
2023-04-28T10:16:00.603Z,33.26
2023-04-28T10:17:00.569Z,33.23
2023-04-28T10:18:00.581Z,33.32
2023-04-28T10:19:00.552Z,33.38
2023-04-28T10:20:00.578Z,33.54
2023-04-28T10:21:00.552Z,34.69
2023-04-28T10:22:00.562Z,35.60
2023-04-28T10:23:00.562Z,35.65
2023-04-28T10:24:01.086Z,35.09
2023-04-28T10:25:00.657Z,34.98
2023-04-28T10:26:00.725Z,34.62
2023-04-28T10:27:00.752Z,34.34
2023-04-28T10:28:00.771Z,34.04
2023-04-28T10:29:00.806Z,33.76
2023-04-28T10:30:00.841Z,33.49
2023-04-28T10:31:00.878Z,33.20
2023-04-28T10:32:00.855Z,32.96
2023-04-28T10:33:00.908Z,32.71
2023-04-28T10:34:00.870Z,32.57
2023-04-28T10:35:00.893Z,32.38
2023-04-28T10:36:00.963Z,32.08
2023-04-28T10:37:00.996Z,31.92
2023-04-28T10:38:01.151Z,31.72
2023-04-28T10:39:01.107Z,31.55
2023-04-28T10:40:01.152Z,31.36
2023-04-28T10:41:01.190Z,31.15
2023-04-28T10:42:01.223Z,31.06
2023-04-28T10:43:01.251Z,30.90
2023-04-28T10:44:01.263Z,30.78
2023-04-28T10:45:01.288Z,30.64
2023-04-28T10:46:01.467Z,30.49
2023-04-28T10:47:01.417Z,30.42
2023-04-28T10:48:01.338Z,30.25
2023-04-28T10:49:01.314Z,30.12
2023-04-28T10:50:01.363Z,30.02
2023-04-28T10:51:01.304Z,29.91
2023-04-28T10:52:01.297Z,29.80
2023-04-28T10:53:01.318Z,29.73
2023-04-28T10:54:01.344Z,29.69
2023-04-28T10:55:06.995Z,29.53
2023-04-28T10:56:02.395Z,29.48
2023-04-28T10:57:01.357Z,29.48
2023-04-28T10:58:01.363Z,29.38
2023-04-28T10:59:01.345Z,29.31
2023-04-28T11:00:01.340Z,29.27
2023-04-28T11:01:01.342Z,29.22
2023-04-28T11:02:01.399Z,29.15
2023-04-28T11:03:01.408Z,29.15
2023-04-28T11:04:01.615Z,29.08
2023-04-28T11:05:01.554Z,29.06
2023-04-28T11:06:01.487Z,29.68
2023-04-28T11:07:01.525Z,29.58
2023-04-28T11:08:01.585Z,29.97
2023-04-28T11:09:02.108Z,30.33
2023-04-28T11:10:01.759Z,30.20
2023-04-28T11:11:01.766Z,31.81
2023-04-28T11:12:01.805Z,33.18
2023-04-28T11:13:01.866Z,33.45
2023-04-28T11:14:02.064Z,31.80
2023-04-28T11:15:02.043Z,33.89
2023-04-28T11:16:02.070Z,34.16
2023-04-28T11:17:02.135Z,32.57
2023-04-28T11:18:02.214Z,31.49
2023-04-28T11:19:02.569Z,31.37
2023-04-28T11:20:02.316Z,31.46
2023-04-28T11:21:02.361Z,31.48
2023-04-28T11:22:02.438Z,32.43
2023-04-28T11:23:02.496Z,31.55
2023-04-28T11:24:02.581Z,31.91
2023-04-28T11:25:02.670Z,32.23
2023-04-28T11:26:02.650Z,32.35
2023-04-28T11:27:02.711Z,31.94
2023-04-28T11:28:02.748Z,32.23
2023-04-28T11:29:02.783Z,31.93
2023-04-28T11:30:02.822Z,31.99
2023-04-28T11:31:02.857Z,31.92
2023-04-28T11:32:02.993Z,31.95
2023-04-28T11:33:02.971Z,31.98
2023-04-28T11:34:02.978Z,31.98
2023-04-28T11:35:03.012Z,31.94
2023-04-28T11:36:03.050Z,32.01
2023-04-28T11:37:03.065Z,31.96
2023-04-28T11:38:03.077Z,31.97
2023-04-28T11:39:03.127Z,31.96
2023-04-28T11:40:03.160Z,31.96
2023-04-28T11:41:03.162Z,31.97
2023-04-28T11:42:03.245Z,32.03
2023-04-28T11:43:03.216Z,32.27
2023-04-28T11:44:03.237Z,32.00
2023-04-28T11:45:03.290Z,31.98
2023-04-28T11:46:03.332Z,33.30
2023-04-28T11:47:03.842Z,33.40
2023-04-28T11:48:03.406Z,33.62
2023-04-28T11:49:03.405Z,33.80
2023-04-28T11:50:03.567Z,33.71
2023-04-28T11:51:03.460Z,33.58
2023-04-28T11:52:03.498Z,33.47
2023-04-28T11:53:03.552Z,33.33
2023-04-28T11:54:03.582Z,33.08
2023-04-28T11:55:03.591Z,33.02
2023-04-28T11:56:03.606Z,32.94
2023-04-28T11:57:03.668Z,32.92
2023-04-28T11:58:03.596Z,32.62
2023-04-28T11:59:04.068Z,32.79
2023-04-28T12:00:03.619Z,32.54
2023-04-28T12:01:03.633Z,32.39
2023-04-28T12:02:03.724Z,32.28
2023-04-28T12:03:03.824Z,32.27
2023-04-28T12:04:03.959Z,32.26
2023-04-28T12:05:03.867Z,32.15
2023-04-28T12:06:03.968Z,32.07
2023-04-28T12:07:03.973Z,31.97
2023-04-28T12:08:04.046Z,31.75
2023-04-28T12:09:04.096Z,31.76
2023-04-28T12:10:04.121Z,31.71
2023-04-28T12:11:04.151Z,31.60
2023-04-28T12:12:04.198Z,31.54
2023-04-28T12:13:04.226Z,31.49
2023-04-28T12:14:04.257Z,31.44
2023-04-28T12:15:04.305Z,31.36
2023-04-28T12:16:04.419Z,31.35
2023-04-28T12:17:04.354Z,31.27
2023-04-28T12:18:04.416Z,31.27
2023-04-28T12:19:04.402Z,31.16
2023-04-28T12:20:04.437Z,31.22
2023-04-28T12:21:04.423Z,31.07
2023-04-28T12:22:04.472Z,31.06
2023-04-28T12:23:04.458Z,31.01
2023-04-28T12:24:04.488Z,30.96
2023-04-28T12:25:04.500Z,30.97
2023-04-28T12:26:04.513Z,30.90
2023-04-28T12:27:04.513Z,30.81
2023-04-28T12:28:04.641Z,30.77
2023-04-28T12:29:04.567Z,30.74
2023-04-28T12:30:04.533Z,30.73
2023-04-28T12:31:04.633Z,30.73
2023-04-28T12:32:04.557Z,30.68
2023-04-28T12:33:04.614Z,30.60
2023-04-28T12:34:04.595Z,30.58
2023-04-28T12:35:04.566Z,30.58
2023-04-28T12:36:04.581Z,30.58
2023-04-28T12:37:04.588Z,30.59
2023-04-28T12:38:04.591Z,30.51
2023-04-28T12:39:04.598Z,30.27
2023-04-28T12:40:04.591Z,30.49
2023-04-28T12:41:04.627Z,30.48
2023-04-28T12:42:04.639Z,30.51
2023-04-28T12:43:04.688Z,30.50
2023-04-28T12:44:04.727Z,30.47
2023-04-28T12:45:04.736Z,30.42
2023-04-28T12:46:04.820Z,30.40
2023-04-28T12:47:04.794Z,30.43
2023-04-28T12:48:04.887Z,30.43
2023-04-28T12:49:04.877Z,30.40
2023-04-28T12:50:04.881Z,30.34
2023-04-28T12:51:04.911Z,30.37
2023-04-28T12:52:04.940Z,30.46
2023-04-28T12:53:04.936Z,30.39
2023-04-28T12:54:04.978Z,30.39